SHMÚ vydal meteorologické výstrahy na Storm Display warnings

METAR

Aeronautical MET Report METAR

METAR description (Slovak)

24.05.2016 - 09:30 UTC

METAR LZIB 240930Z 28014KT 9999 FEW008 SCT065 BKN081 12/10 Q1007
NOSIG=
METAR LZKZ 240930Z 04008KT 020V110 CAVOK 24/14 Q1004 NOSIG=
METAR LZPP 240930Z 36009KT 9999 FEW012 SCT028 BKN090 14/12 Q1007=
METAR LZSL 240930Z VRB02KT 9999 FEW013 SCT060 19/14 Q1006=
METAR LZTT 240930Z VRB03KT 9999 SCT060 20/08 Q1006 NOSIG=
METAR LZZI 240930Z 25016KT 9999 SCT019 BKN070 15/11 Q1007=

24.05.2016 - 09:00 UTC

METAR LZIB 240900Z 25013KT 9999 -RA SCT007 BKN081 12/10 Q1007 NOSIG=
METAR LZKZ 240900Z 04007KT 010V080 CAVOK 24/13 Q1004 NOSIG=
METAR LZPP 240900Z 04005KT 350V070 9999 -RA FEW010 BKN045 13/12
Q1008=
METAR LZSL 240900Z 04004KT 300V100 9999 FEW013 SCT060 17/13 Q1006=
METAR LZTT 240900Z VRB02KT 9999 SCT056 19/09 Q1006 NOSIG=
METAR LZZI 240900Z 26016KT 9999 -SHRA FEW027 SCT038TCU BKN048 14/12
Q1007=

24.05.2016 - 09:00 UTC

METAR LZMC 240900Z 07002KT 7000 -RA SCT004 OVC006 11/10
Q1008=
METAR LZPW 240900Z 06008KT 9999 FEW045 23/13 Q1005=

 

 

skok na menu ↑


skok na začiatok stránky ↑